createdAt,value
2022-09-22T00:00:34.680Z,100432.81
2022-09-22T00:03:02.031Z,100431.78
2022-09-22T00:05:29.964Z,100432.16
2022-09-22T00:07:59.735Z,100431.00
2022-09-22T00:10:27.082Z,100432.25
2022-09-22T00:12:55.274Z,100425.47
2022-09-22T00:15:22.963Z,100432.25
2022-09-22T00:17:51.139Z,100423.34
2022-09-22T00:20:18.585Z,100414.25
2022-09-22T00:22:49.000Z,100414.56
2022-09-22T00:25:17.289Z,100411.63
2022-09-22T00:27:44.939Z,100416.31
2022-09-22T00:30:13.247Z,100418.81
2022-09-22T00:32:40.676Z,100419.94
2022-09-22T00:35:08.338Z,100422.34
2022-09-22T00:37:35.782Z,100424.22
2022-09-22T00:40:03.672Z,100428.56
2022-09-22T00:42:31.195Z,100431.16
2022-09-22T00:44:58.588Z,100438.56
2022-09-22T00:47:26.181Z,100427.97
2022-09-22T00:50:05.367Z,100435.03
2022-09-22T00:52:35.886Z,100437.47
2022-09-22T00:55:04.842Z,100432.00
2022-09-22T00:57:33.317Z,100438.63
2022-09-22T01:00:01.371Z,100435.63
2022-09-22T01:02:29.471Z,100429.09
2022-09-22T01:04:57.116Z,100435.63
2022-09-22T01:07:25.981Z,100446.38
2022-09-22T01:09:53.734Z,100453.06
2022-09-22T01:12:21.289Z,100460.22
2022-09-22T01:15:24.551Z,100454.41
2022-09-22T01:18:01.997Z,100456.78
2022-09-22T01:20:48.329Z,100454.81
2022-09-22T01:23:19.038Z,100445.00
2022-09-22T01:26:06.212Z,100446.47
2022-09-22T01:28:57.870Z,100444.69
2022-09-22T01:31:31.415Z,100453.41
2022-09-22T01:34:06.707Z,100454.19
2022-09-22T01:36:38.374Z,100460.16
2022-09-22T01:39:05.861Z,100452.88
2022-09-22T01:41:42.774Z,100453.09
2022-09-22T01:44:13.086Z,100450.72
2022-09-22T01:46:42.053Z,100463.31
2022-09-22T01:49:10.174Z,100470.78
2022-09-22T01:51:42.015Z,100466.81
2022-09-22T01:54:13.277Z,100468.44
2022-09-22T01:56:40.910Z,100465.97
2022-09-22T01:59:08.457Z,100473.28
2022-09-22T02:01:41.265Z,100471.19
2022-09-22T02:04:10.410Z,100474.53
2022-09-22T02:06:43.616Z,100470.94
2022-09-22T02:09:14.696Z,100477.50
2022-09-22T02:11:42.254Z,100464.66
2022-09-22T02:14:09.910Z,100471.13
2022-09-22T02:16:37.787Z,100476.69
2022-09-22T02:19:12.941Z,100475.69
2022-09-22T02:21:42.076Z,100478.31
2022-09-22T02:24:44.858Z,100479.47
2022-09-22T02:27:12.978Z,100482.03
2022-09-22T02:29:44.404Z,100480.69
2022-09-22T02:32:14.719Z,100484.28
2022-09-22T02:34:42.986Z,100478.28
2022-09-22T02:37:23.830Z,100482.81
2022-09-22T02:40:00.683Z,100486.38
2022-09-22T02:42:28.221Z,100483.56
2022-09-22T02:45:08.279Z,100480.56
2022-09-22T02:47:38.316Z,100494.75
2022-09-22T02:50:07.395Z,100497.34
2022-09-22T02:52:34.861Z,100494.13
2022-09-22T02:55:02.477Z,100494.13
2022-09-22T02:57:32.225Z,100490.41
2022-09-22T02:59:59.573Z,100484.88
2022-09-22T03:02:27.264Z,100488.94
2022-09-22T03:04:54.692Z,100482.94
2022-09-22T03:07:25.437Z,100480.38
2022-09-22T03:09:53.086Z,100470.59
2022-09-22T03:12:21.034Z,100482.13
2022-09-22T03:14:50.140Z,100482.72
2022-09-22T03:17:17.608Z,100479.25
2022-09-22T03:19:45.610Z,100480.09
2022-09-22T03:22:13.093Z,100481.06
2022-09-22T03:24:40.493Z,100478.25
2022-09-22T03:27:07.886Z,100477.19
2022-09-22T03:29:35.418Z,100472.06
2022-09-22T03:32:02.863Z,100471.94
2022-09-22T03:34:31.119Z,100475.28
2022-09-22T03:36:58.464Z,100471.44
2022-09-22T03:39:26.349Z,100467.41
2022-09-22T03:41:53.713Z,100470.88
2022-09-22T03:44:21.279Z,100469.16
2022-09-22T03:46:48.576Z,100475.97
2022-09-22T03:49:16.111Z,100485.63
2022-09-22T03:51:43.572Z,100473.81
2022-09-22T03:54:12.786Z,100480.28
2022-09-22T03:56:40.791Z,100476.19
2022-09-22T03:59:08.330Z,100475.00
2022-09-22T04:01:36.061Z,100478.72
2022-09-22T04:04:03.607Z,100482.69
2022-09-22T04:06:30.974Z,100480.88
2022-09-22T17:58:01.598Z,100466.31
2022-09-22T18:00:30.512Z,100466.81
2022-09-22T18:02:58.596Z,100468.25
2022-09-22T18:05:26.853Z,100460.13
2022-09-22T18:07:58.724Z,100459.34
2022-09-22T18:10:32.335Z,100466.59
2022-09-22T18:13:00.469Z,100463.28
2022-09-22T18:15:28.174Z,100467.16
2022-09-22T18:17:57.832Z,100465.41
2022-09-22T18:20:27.651Z,100466.56
2022-09-22T18:22:57.856Z,100459.41
2022-09-22T18:25:25.657Z,100451.59
2022-09-22T18:27:54.678Z,100448.53
2022-09-22T18:30:22.316Z,100457.78
2022-09-22T18:32:51.063Z,100459.41
2022-09-22T18:35:18.682Z,100459.41
2022-09-22T18:37:46.431Z,100463.06
2022-09-22T18:40:14.103Z,100463.63
2022-09-22T18:42:44.969Z,100461.09
2022-09-22T18:45:14.297Z,100461.38
2022-09-22T18:47:43.418Z,100456.63
2022-09-22T18:50:11.131Z,100460.84
2022-09-22T18:52:42.272Z,100456.66
2022-09-22T18:55:10.028Z,100459.16
2022-09-22T18:57:37.831Z,100463.38
2022-09-22T19:00:05.618Z,100466.69
2022-09-22T19:02:34.052Z,100463.06
2022-09-22T19:05:01.389Z,100462.78
2022-09-22T19:07:41.912Z,100460.56
2022-09-22T19:10:12.410Z,100459.16
2022-09-22T19:12:40.183Z,100460.81
2022-09-22T19:15:13.909Z,100459.69
2022-09-22T19:17:44.418Z,100466.13
2022-09-22T19:20:17.466Z,100469.22
2022-09-22T19:22:45.086Z,100463.00
2022-09-22T19:25:12.889Z,100464.19
2022-09-22T19:27:40.669Z,100466.13
2022-09-22T19:30:08.791Z,100473.91
2022-09-22T19:32:36.426Z,100470.31
2022-09-22T19:35:04.459Z,100468.63
2022-09-22T19:37:32.640Z,100467.25
2022-09-22T19:40:00.541Z,100472.00
2022-09-22T19:42:28.829Z,100467.53
2022-09-22T19:44:56.855Z,100475.56
2022-09-22T19:47:24.298Z,100470.31
2022-09-22T19:49:51.944Z,100470.59
2022-09-22T19:52:19.401Z,100465.59
2022-09-22T19:54:51.004Z,100463.94
2022-09-22T19:57:18.350Z,100461.69
2022-09-22T19:59:46.297Z,100455.81
2022-09-22T20:02:14.021Z,100461.41
2022-09-22T20:04:41.376Z,100462.50
2022-09-22T20:07:11.106Z,100464.72
2022-09-22T20:09:38.942Z,100461.41
2022-09-22T20:12:06.317Z,100460.31
2022-09-22T20:14:34.555Z,100463.06
2022-09-22T20:17:06.011Z,100456.38
2022-09-22T20:19:38.514Z,100457.19
2022-09-22T20:22:18.204Z,100455.53
2022-09-22T20:24:54.077Z,100461.97
2022-09-22T20:27:22.971Z,100461.38
2022-09-22T20:29:55.055Z,100456.38
2022-09-22T20:32:24.773Z,100453.06
2022-09-22T20:34:52.581Z,100451.66
2022-09-22T20:37:19.917Z,100446.91
2022-09-22T20:39:47.456Z,100454.41
2022-09-22T20:42:15.711Z,100444.41
2022-09-22T20:44:44.136Z,100445.47
2022-09-22T20:47:14.966Z,100449.63
2022-09-22T20:49:42.614Z,100450.53
2022-09-22T20:52:14.636Z,100450.78
2022-09-22T20:54:42.574Z,100453.56
2022-09-22T20:57:12.100Z,100450.25
2022-09-22T20:59:39.985Z,100456.84
2022-09-22T21:02:07.371Z,100449.59
2022-09-22T21:04:35.760Z,100447.38
2022-09-22T21:07:03.159Z,100442.13
2022-09-22T21:09:49.449Z,100445.75
2022-09-22T21:12:17.903Z,100441.00
2022-09-22T21:14:46.036Z,100449.66
2022-09-22T21:17:15.319Z,100444.06
2022-09-22T21:19:43.431Z,100443.25
2022-09-22T21:22:11.552Z,100444.34
2022-09-22T21:24:39.754Z,100436.25
2022-09-22T21:27:07.202Z,100440.72
2022-09-22T21:29:34.535Z,100437.34
2022-09-22T21:32:02.726Z,100439.03
2022-09-22T21:34:30.855Z,100440.69
2022-09-22T21:36:58.211Z,100442.09
2022-09-22T21:39:25.471Z,100435.66
2022-09-22T21:41:52.987Z,100444.31
2022-09-22T21:44:20.345Z,100438.78
2022-09-22T21:46:47.909Z,100435.41
2022-09-22T21:49:15.186Z,100439.28
2022-09-22T21:51:44.210Z,100434.56
2022-09-22T21:54:13.035Z,100430.41
2022-09-22T21:56:40.461Z,100427.06
2022-09-22T21:59:07.882Z,100431.50
2022-09-22T22:01:36.780Z,100425.91
2022-09-22T22:04:08.019Z,100424.56
2022-09-22T22:06:40.234Z,100423.13
2022-09-22T22:09:10.767Z,100418.06
2022-09-22T22:11:39.460Z,100419.69
2022-09-22T22:14:07.987Z,100421.69
2022-09-22T22:16:37.939Z,100421.88
2022-09-22T22:19:06.434Z,100426.97
2022-09-22T22:21:33.759Z,100417.25
2022-09-22T22:24:17.490Z,100409.16
2022-09-22T22:26:45.479Z,100415.56
2022-09-22T22:29:13.395Z,100409.66
2022-09-22T22:31:41.361Z,100401.81
2022-09-22T22:34:09.458Z,100415.16
2022-09-22T22:36:37.351Z,100410.50
2022-09-22T22:39:04.656Z,100419.69
2022-09-22T22:41:32.481Z,100408.84
2022-09-22T22:44:01.890Z,100409.69
2022-09-22T22:46:29.944Z,100410.50
2022-09-22T22:48:57.508Z,100407.38
2022-09-22T22:51:24.858Z,100405.97
2022-09-22T22:53:53.474Z,100398.72
2022-09-22T22:56:21.810Z,100396.84
2022-09-22T22:58:49.989Z,100394.84
2022-09-22T23:01:17.699Z,100395.13
2022-09-22T23:03:49.320Z,100401.22
2022-09-22T23:06:18.101Z,100395.69
2022-09-22T23:08:45.463Z,100401.88
2022-09-22T23:11:31.638Z,100389.03
2022-09-22T23:14:03.336Z,100385.44
2022-09-22T23:16:32.039Z,100393.16
2022-09-22T23:19:01.453Z,100389.81
2022-09-22T23:21:32.916Z,100386.84
2022-09-22T23:24:01.308Z,100386.25
2022-09-22T23:26:32.181Z,100383.69
2022-09-22T23:28:59.960Z,100373.25
2022-09-22T23:31:27.883Z,100362.22
2022-09-22T23:33:57.675Z,100363.09
2022-09-22T23:36:25.668Z,100368.41
2022-09-22T23:38:53.592Z,100365.34
2022-09-22T23:41:21.034Z,100362.56
2022-09-22T23:43:48.361Z,100355.91
2022-09-22T23:46:15.782Z,100349.50
2022-09-22T23:48:43.728Z,100342.75
2022-09-22T23:51:11.100Z,100347.19
2022-09-22T23:53:38.935Z,100346.81
2022-09-22T23:56:06.602Z,100339.25
2022-09-22T23:58:34.271Z,100345.75
